Time,TemperatureF,DewpointF,PressureIn,WindDirection,WindDirectionDegrees,WindSpeedMPH,WindSpeedGustMPH,Humidity,HourlyPrecipIn,Conditions,Clouds,dailyrainin,SoftwareType,DateUTC
2013-10-04 00:00:00,27.0,26.0,-100.00,NE,47,2.0,3.0,96,0.03,,,0.56,,2013-10-04 04:00:00,
2013-10-04 00:48:00,27.0,26.0,-100.00,NE,47,2.0,3.0,96,0.03,,,0.56,,2013-10-04 04:48:00,
2013-10-04 01:00:00,27.0,25.0,-100.00,ENE,72,7.0,11.0,95,0.07,,,0.63,,2013-10-04 05:00:00,
2013-10-04 01:46:00,27.0,25.0,-100.00,ENE,72,7.0,11.0,95,0.07,,,0.63,,2013-10-04 05:46:00,
2013-10-04 01:58:00,27.0,25.0,-100.00,ENE,72,7.0,11.0,95,0.07,,,0.63,,2013-10-04 05:58:00,
2013-10-04 03:00:00,27.0,25.0,-100.00,ENE,58,3.0,4.0,95,0.08,,,0.79,,2013-10-04 07:00:00,
2013-10-04 03:45:00,27.0,25.0,-100.00,ENE,58,3.0,4.0,95,0.08,,,0.79,,2013-10-04 07:45:00,
2013-10-04 03:57:00,27.0,25.0,-100.00,ENE,58,3.0,4.0,95,0.08,,,0.79,,2013-10-04 07:57:00,
2013-10-04 04:00:00,26.0,25.0,-100.00,East,93,6.0,8.0,95,0.06,,,0.83,,2013-10-04 08:00:00,
2013-10-04 04:45:00,26.0,25.0,-100.00,East,93,6.0,8.0,95,0.06,,,0.83,,2013-10-04 08:45:00,
2013-10-04 04:57:00,26.0,25.0,-100.00,East,93,6.0,8.0,95,0.06,,,0.83,,2013-10-04 08:57:00,
2013-10-04 05:00:00,26.0,24.0,-100.00,ESE,107,7.0,9.0,95,0.06,,,0.88,,2013-10-04 09:00:00,
2013-10-04 05:59:00,26.0,24.0,-100.00,ESE,107,7.0,9.0,95,0.06,,,0.88,,2013-10-04 09:59:00,
2013-10-04 06:00:00,25.0,23.0,-100.00,ESE,118,4.0,12.0,92,0.06,,,0.92,,2013-10-04 10:00:00,
2013-10-04 06:47:00,25.0,23.0,-100.00,ESE,118,4.0,12.0,92,0.06,,,0.92,,2013-10-04 10:47:00,
2013-10-04 06:59:00,25.0,23.0,-100.00,ESE,118,4.0,12.0,92,0.06,,,0.92,,2013-10-04 10:59:00,
2013-10-04 07:00:00,25.0,23.0,-100.00,ENE,70,8.0,15.0,92,0.03,,,0.92,,2013-10-04 11:00:00,
2013-10-04 07:47:00,25.0,23.0,-100.00,ENE,70,8.0,15.0,92,0.03,,,0.92,,2013-10-04 11:47:00,
2013-10-04 07:59:00,25.0,23.0,-100.00,ENE,70,8.0,15.0,92,0.03,,,0.92,,2013-10-04 11:59:00,
2013-10-04 09:00:00,25.0,23.0,-100.00,ESE,116,3.0,6.0,95,0.06,,,0.91,,2013-10-04 13:00:00,
2013-10-04 09:46:00,25.0,23.0,-100.00,ESE,116,3.0,6.0,95,0.06,,,0.91,,2013-10-04 13:46:00,
2013-10-04 09:58:00,25.0,23.0,-100.00,ESE,116,3.0,6.0,95,0.06,,,0.91,,2013-10-04 13:58:00,
2013-10-04 10:00:00,24.0,23.0,-100.00,ENE,71,7.0,9.0,95,0.07,,,0.94,,2013-10-04 14:00:00,
2013-10-04 10:47:00,24.0,23.0,-100.00,ENE,71,7.0,9.0,95,0.07,,,0.94,,2013-10-04 14:47:00,
2013-10-04 10:59:00,24.0,23.0,-100.00,ENE,71,7.0,9.0,95,0.07,,,0.94,,2013-10-04 14:59:00,
2013-10-04 11:00:00,24.0,23.0,-100.00,ENE,73,7.0,10.0,95,0.03,,,0.93,,2013-10-04 15:00:00,
2013-10-04 11:47:00,24.0,23.0,-100.00,ENE,73,7.0,10.0,95,0.03,,,0.93,,2013-10-04 15:47:00,
2013-10-04 11:59:00,24.0,23.0,-100.00,ENE,73,7.0,10.0,95,0.03,,,0.93,,2013-10-04 15:59:00,
2013-10-04 12:00:00,25.0,23.0,-100.00,ENE,78,8.0,12.0,95,0.03,,,0.93,,2013-10-04 16:00:00,
2013-10-04 12:47:00,25.0,23.0,-100.00,ENE,78,8.0,12.0,95,0.03,,,0.93,,2013-10-04 16:47:00,
2013-10-04 12:59:00,25.0,23.0,-100.00,ENE,78,8.0,12.0,95,0.03,,,0.93,,2013-10-04 16:59:00,
2013-10-04 13:00:00,25.0,24.0,-100.00,East,79,10.0,14.0,95,0.02,,,0.92,,2013-10-04 17:00:00,
2013-10-04 14:00:00,24.0,23.0,-100.00,ENE,76,6.0,8.0,94,0.02,,,0.87,,2013-10-04 18:00:00,
2013-10-04 14:47:00,24.0,23.0,-100.00,ENE,76,6.0,8.0,94,0.02,,,0.87,,2013-10-04 18:47:00,
2013-10-04 14:56:00,24.0,23.0,-100.00,ENE,76,6.0,8.0,94,0.02,,,0.87,,2013-10-04 18:56:00,
2013-10-04 15:00:00,27.0,26.0,-100.00,NE,34,0.0,1.0,96,0.05,,,0.83,,2013-10-04 19:00:00,
2013-10-04 15:43:00,27.0,26.0,-100.00,NE,34,0.0,1.0,96,0.05,,,0.83,,2013-10-04 19:43:00,
2013-10-04 15:52:00,27.0,26.0,-100.00,NE,34,0.0,1.0,96,0.05,,,0.83,,2013-10-04 19:52:00,
2013-10-04 16:00:00,27.0,26.0,-100.00,NNE,19,5.0,5.0,96,0.02,,,0.83,,2013-10-04 20:00:00,
2013-10-04 16:43:00,27.0,26.0,-100.00,NNE,19,5.0,5.0,96,0.02,,,0.83,,2013-10-04 20:43:00,
2013-10-04 16:53:00,27.0,26.0,-100.00,NNE,19,5.0,5.0,96,0.02,,,0.83,,2013-10-04 20:53:00,
2013-10-04 17:00:00,26.0,25.0,-100.00,ENE,73,7.0,9.0,96,0.00,,,0.83,,2013-10-04 21:00:00,
2013-10-04 17:43:00,26.0,25.0,-100.00,ENE,73,7.0,9.0,96,0.00,,,0.83,,2013-10-04 21:43:00,
2013-10-04 17:54:00,26.0,25.0,-100.00,ENE,73,7.0,9.0,96,0.00,,,0.83,,2013-10-04 21:54:00,
2013-10-04 18:00:00,25.0,23.0,-100.00,ENE,72,6.0,7.0,95,0.00,,,0.82,,2013-10-04 22:00:00,
2013-10-04 18:42:00,25.0,23.0,-100.00,ENE,72,6.0,7.0,95,0.00,,,0.82,,2013-10-04 22:42:00,
2013-10-04 18:52:00,25.0,23.0,-100.00,ENE,72,6.0,7.0,95,0.00,,,0.82,,2013-10-04 22:52:00,
2013-10-04 19:00:00,25.0,24.0,-100.00,West,261,0.0,1.0,95,0.00,,,0.82,,2013-10-04 23:00:00,
2013-10-04 19:42:00,25.0,24.0,-100.00,West,261,0.0,1.0,95,0.00,,,0.82,,2013-10-04 23:42:00,
2013-10-04 19:53:00,25.0,24.0,-100.00,West,261,0.0,1.0,95,0.00,,,0.82,,2013-10-04 23:53:00,
2013-10-04 21:00:00,25.0,24.0,-100.00,NNE,32,1.0,3.0,95,0.00,,,0.82,,2013-10-05 01:00:00,
2013-10-04 21:43:00,25.0,24.0,-100.00,NNE,32,1.0,3.0,95,0.00,,,0.82,,2013-10-05 01:43:00,
2013-10-04 21:52:00,25.0,24.0,-100.00,NNE,32,1.0,3.0,95,0.00,,,0.82,,2013-10-05 01:52:00,
2013-10-04 22:00:00,26.0,25.0,-100.00,West,270,2.0,3.0,96,0.01,,,0.82,,2013-10-05 02:00:00,
2013-10-04 22:42:00,26.0,25.0,-100.00,West,270,2.0,3.0,96,0.01,,,0.82,,2013-10-05 02:42:00,
2013-10-04 22:52:00,26.0,25.0,-100.00,West,270,2.0,3.0,96,0.01,,,0.82,,2013-10-05 02:52:00,
2013-10-04 23:00:00,26.0,25.0,-100.00,West,259,3.0,3.0,96,0.00,,,0.82,,2013-10-05 03:00:00,
2013-10-04 23:45:00,26.0,25.0,-100.00,West,259,3.0,3.0,96,0.00,,,0.82,,2013-10-05 03:45:00,
2013-10-04 23:55:00,26.0,25.0,-100.00,West,259,3.0,3.0,96,0.00,,,0.82,,2013-10-05 03:55:00,